Terminal Aerodrome Forecast
Issued by NWS Knoxville/Tri Cities, TN

Home | Current Version | Previous Version | Text Only | Print | Product List | Glossary On
Versions: 1 2 3 4 5 6 7 8 9 10 11 12 13 14 15 16 17 18 19 20 21 22 23 24 25 26 27 28 29 30 31 32 33 34 35 36
000
FTUS44 KMRX 311120
TAFTRI
TAF
KTRI 311120Z 3112/0112 00000KT 5SM BR SCT150 BKN250
     FM311230 VRB04KT P6SM SCT150 BKN250
     FM312100 VRB04KT P6SM VCSH SCT035 BKN120
     FM010600 VRB03KT 5SM BR VCSH BKN040 OVC080=

USA.gov is the U.S. government's official web portal to all federal, state and local government web resources and services.